Rapid City, South Dakota
Current Conditions -  °F | °C
As of 10:58 AM on Thursday 30 Oct 2014 (Local Time) from KRCA Reporting Station
Clear Clear  
Wind Chill: 51°   Ceiling: Unl
Heat Index: 51°   Visibility: 8mi
Dew Point: 35°   Wind: 14mph
Humidity: 54%   Direction: 40°NE
Pressure: 30.32"   Gusts: NA
Location:  44.08°N, 103.23°W
Report Text: KRCA 301658Z AUTO 04012KT 8SM CLR 10/01 A3032 RMK AO2 SLP283 T01030014 $
Loading
Personal Weather Stations






























Interactive Weather Map
Tropical Storm Tracking
New forecast layout! Learn more

10-Day Weather Forecast

Advertisements
Track Severe Weather on mobile